| time (UTC) | temp F | wind direction | speed knots | gust knots | rain 1hr in | rain 24hr in | rain mn in | humidity % | barometer mb |
| 20260510164139 | 78 | 5 | 1.7 | 4.3 | 0.00 | 0.00 | 0.00 | 87 | 1017.0 |
| 20260510163639 | 78 | 53 | 2.6 | 4.3 | 0.00 | 0.00 | 0.00 | 87 | 1017.0 |
| 20260510163139 | 78 | 64 | 2.6 | 4.3 | 0.00 | 0.00 | 0.00 | 86 | 1017.0 |
| 20260510162639 | 78 | 337 | 0.9 | 3.5 | 0.00 | 0.00 | 0.00 | 87 | 1017.0 |
| 20260510162139 | 78 | 52 | 2.6 | 4.3 | 0.00 | 0.00 | 0.00 | 87 | 1017.0 |
| 20260510161639 | 77 | 23 | 1.7 | 3.5 | 0.00 | 0.00 | 0.00 | 87 | 1017.0 |
| 20260510161141 | 77 | 339 | 1.7 | 2.6 | 0.00 | 0.00 | 0.00 | 89 | 1017.0 |
| 20260510160639 | 77 | 21 | 3.5 | 5.2 | 0.00 | 0.00 | 0.00 | 88 | 1017.0 |
| 20260510160142 | 76 | 42 | 1.7 | 3.5 | 0.00 | 0.00 | 0.00 | 89 | 1017.0 |
| 20260510155639 | 76 | 67 | 2.6 | 5.2 | 0.00 | 0.00 | 0.00 | 89 | 1017.0 |
| 20260510155139 | 76 | 48 | 1.7 | 3.5 | 0.00 | 0.00 | 0.00 | 90 | 1017.0 |
| 20260510154639 | 76 | 38 | 1.7 | 4.3 | 0.00 | 0.00 | 0.00 | 90 | 1017.0 |
| 20260510154139 | 75 | 47 | 2.6 | 3.5 | 0.00 | 0.00 | 0.00 | 91 | 1017.0 |
| 20260510153639 | 75 | 61 | 2.6 | 4.3 | 0.00 | 0.00 | 0.00 | 91 | 1017.0 |
| 20260510153140 | 75 | 50 | 2.6 | 4.3 | 0.00 | 0.00 | 0.00 | 92 | 1017.0 |
| 20260510152639 | 74 | 55 | 2.6 | 5.2 | 0.00 | 0.00 | 0.00 | 92 | 1017.0 |
| 20260510152140 | 75 | 63 | 2.6 | 5.2 | 0.00 | 0.00 | 0.00 | 91 | 1017.0 |
| 20260510151640 | 74 | 67 | 1.7 | 5.2 | 0.00 | 0.00 | 0.00 | 92 | 1017.0 |
| 20260510151141 | 74 | 42 | 3.5 | 6.1 | 0.00 | 0.00 | 0.00 | 92 | 1017.0 |
| 20260510150640 | 74 | 74 | 3.5 | 7.8 | 0.00 | 0.00 | 0.00 | 92 | 1017.0 |
| 20260510150139 | 74 | 67 | 0.9 | 3.5 | 0.00 | 0.00 | 0.00 | 92 | 1017.0 |
| 20260510145639 | 74 | 76 | 3.5 | 6.1 | 0.00 | 0.00 | 0.00 | 93 | 1017.0 |
| 20260510145139 | 74 | 66 | 3.5 | 6.1 | 0.00 | 0.00 | 0.00 | 93 | 1017.0 |
| 20260510144639 | 74 | 18 | 0.9 | 1.7 | 0.00 | 0.00 | 0.00 | 93 | 1017.0 |
| 20260510144139 | 74 | 39 | 1.7 | 3.5 | 0.00 | 0.00 | 0.00 | 94 | 1017.0 |
| 20260510143639 | 74 | 68 | 2.6 | 5.2 | 0.00 | 0.00 | 0.00 | 94 | 1017.0 |
| 20260510143140 | 73 | 265 | 3.5 | 5.2 | 0.00 | 0.00 | 0.00 | 93 | 1017.0 |
| 20260510142639 | 73 | 60 | 4.3 | 7.0 | 0.00 | 0.00 | 0.00 | 93 | 1017.0 |
| 20260510142140 | 74 | 19 | 1.7 | 2.6 | 0.00 | 0.00 | 0.00 | 93 | 1017.0 |
| 20260510141639 | 74 | 18 | 1.7 | 2.6 | 0.00 | 0.00 | 0.00 | 93 | 1017.0 |
| 20260510141139 | 74 | 356 | 1.7 | 4.3 | 0.00 | 0.00 | 0.00 | 93 | 1017.0 |
| 20260510140639 | 74 | 9 | 2.6 | 4.3 | 0.00 | 0.00 | 0.00 | 93 | 1017.0 |
| 20260510140139 | 73 | 8 | 2.6 | 3.5 | 0.00 | 0.00 | 0.00 | 94 | 1017.0 |
| 20260510135639 | 73 | 3 | 0.9 | 1.7 | 0.00 | 0.00 | 0.00 | 95 | 1017.0 |
| 20260510135139 | 73 | 8 | 1.7 | 3.5 | 0.00 | 0.00 | 0.00 | 96 | 1017.0 |
| 20260510134640 | 72 | 4 | 1.7 | 2.6 | 0.00 | 0.00 | 0.00 | 96 | 1017.0 |
| 20260510134141 | 72 | 28 | 0.9 | 1.7 | 0.00 | 0.00 | 0.00 | 97 | 1017.0 |
| 20260510133639 | 72 | 78 | 2.6 | 7.8 | 0.00 | 0.00 | 0.00 | 97 | 1017.0 |
| 20260510133139 | 72 | 323 | 1.7 | 2.6 | 0.00 | 0.00 | 0.00 | 98 | 1017.0 |
| 20260510132639 | 71 | 342 | 1.7 | 2.6 | 0.00 | 0.00 | 0.00 | 98 | 1017.0 |
| 20260510132139 | 71 | 344 | 2.6 | 3.5 | 0.00 | 0.00 | 0.00 | 99 | 1017.0 |
| 20260510131640 | 71 | 334 | 0.9 | 0.9 | 0.00 | 0.00 | 0.00 | 99 | 1016.0 |
| 20260510131139 | 71 | 67 | 0.9 | 1.7 | 0.00 | 0.00 | 0.00 | 99 | 1016.0 |
| 20260510130639 | 71 | 338 | 1.7 | 1.7 | 0.00 | 0.00 | 0.00 | 100 | 1016.0 |
| 20260510130139 | 70 | 1 | 1.7 | 2.6 | 0.00 | 0.00 | 0.00 | 100 | 1016.0 |
| 20260510125640 | 70 | 6 | 1.7 | 3.5 | 0.00 | 0.00 | 0.00 | 100 | 1016.0 |
| 20260510125140 | 70 | 322 | 0.9 | 1.7 | 0.00 | 0.00 | 0.00 | 100 | 1016.0 |
| 20260510124639 | 70 | 329 | 0.9 | 1.7 | 0.00 | 0.00 | 0.00 | 99 | 1016.0 |
| 20260510124139 | 70 | 1 | 1.7 | 2.6 | 0.00 | 0.00 | 0.00 | 99 | 1016.0 |
| 20260510123639 | 69 | 13 | 2.6 | 2.6 | 0.00 | 0.00 | 0.00 | 99 | 1016.0 |
| 20260510123141 | 69 | 351 | 1.7 | 3.5 | 0.00 | 0.00 | 0.00 | 99 | 1016.0 |
| 20260510122641 | 69 | 344 | 0.9 | 1.7 | 0.00 | 0.00 | 0.00 | 99 | 1016.0 |
| 20260510122139 | 69 | 358 | 0.9 | 1.7 | 0.00 | 0.00 | 0.00 | 99 | 1015.0 |
| 20260510121640 | 69 | 351 | 0.0 | 0.9 | 0.00 | 0.00 | 0.00 | 99 | 1015.0 |
| 20260510121140 | 69 | 347 | 0.0 | 0.9 | 0.00 | 0.00 | 0.00 | 99 | 1015.0 |
| 20260510120639 | 69 | 13 | 0.9 | 0.9 | 0.00 | 0.00 | 0.00 | 99 | 1015.0 |
| 20260510120139 | 69 | 30 | 0.9 | 1.7 | 0.00 | 0.00 | 0.00 | 99 | 1015.0 |
| 20260510115639 | 68 | 348 | 0.9 | 0.9 | 0.00 | 0.00 | 0.00 | 99 | 1015.0 |
| 20260510115139 | 68 | 0 | 0.0 | 0.0 | 0.00 | 0.00 | 0.00 | 99 | 1015.0 |
| 20260510114639 | 68 | 303 | 0.9 | 0.9 | 0.00 | 0.00 | 0.00 | 99 | 1015.0 |
| 20260510114139 | 68 | 341 | 0.0 | 0.0 | 0.00 | 0.00 | 0.00 | 99 | 1015.0 |
| 20260510113639 | 68 | 329 | 0.0 | 0.9 | 0.00 | 0.00 | 0.00 | 99 | 1015.0 |
| 20260510113139 | 68 | 325 | 0.0 | 0.9 | 0.00 | 0.00 | 0.00 | 100 | 1015.0 |
| 20260510112639 | 68 | 290 | 0.0 | 0.0 | 0.00 | 0.00 | 0.00 | 100 | 1015.0 |
| 20260510112139 | 69 | 10 | 0.0 | 1.7 | 0.00 | 0.00 | 0.00 | 100 | 1015.0 |
| 20260510111640 | 69 | 36 | 0.9 | 0.9 | 0.00 | 0.00 | 0.00 | 100 | 1014.0 |
| 20260510111141 | 69 | 52 | 0.0 | 0.9 | 0.00 | 0.00 | 0.00 | 100 | 1014.0 |
| 20260510110639 | 69 | 0 | 0.0 | 0.0 | 0.00 | 0.00 | 0.00 | 100 | 1014.0 |
| 20260510110139 | 69 | 339 | 0.9 | 0.9 | 0.00 | 0.00 | 0.00 | 100 | 1014.0 |
| 20260510105639 | 69 | 0 | 0.0 | 0.0 | 0.00 | 0.00 | 0.00 | 100 | 1014.0 |
| 20260510105139 | 69 | 317 | 0.0 | 0.9 | 0.00 | 0.00 | 0.00 | 99 | 1014.0 |
| 20260510104639 | 69 | 96 | 0.9 | 1.7 | 0.00 | 0.00 | 0.00 | 100 | 1014.0 |
| 20260510104139 | 69 | 343 | 0.9 | 0.9 | 0.00 | 0.00 | 0.00 | 100 | 1014.0 |
| 20260510103639 | 69 | 348 | 0.0 | 0.0 | 0.00 | 0.00 | 0.00 | 100 | 1014.0 |
| 20260510103139 | 69 | 328 | 0.9 | 0.9 | 0.00 | 0.00 | 0.00 | 100 | 1014.0 |
| 20260510102639 | 69 | 292 | 0.0 | 0.9 | 0.00 | 0.00 | 0.00 | 100 | 1014.0 |
| 20260510102139 | 69 | 0 | 0.0 | 0.0 | 0.00 | 0.00 | 0.00 | 100 | 1014.0 |
| 20260510101639 | 69 | 338 | 1.7 | 1.7 | 0.00 | 0.00 | 0.00 | 100 | 1013.0 |
| 20260510101140 | 69 | 19 | 0.0 | 1.7 | 0.00 | 0.00 | 0.00 | 100 | 1013.0 |
| 20260510100640 | 69 | 358 | 0.9 | 1.7 | 0.00 | 0.00 | 0.00 | 100 | 1013.0 |
| 20260510100139 | 69 | 36 | 0.9 | 1.7 | 0.00 | 0.00 | 0.00 | 100 | 1013.0 |
| 20260510095639 | 69 | 297 | 0.0 | 0.9 | 0.00 | 0.00 | 0.00 | 100 | 1013.0 |
| 20260510095139 | 69 | 6 | 0.0 | 0.9 | 0.00 | 0.00 | 0.00 | 100 | 1013.0 |
| 20260510094640 | 69 | 320 | 0.0 | 0.9 | 0.00 | 0.00 | 0.00 | 100 | 1013.0 |
| 20260510094139 | 69 | 335 | 0.9 | 0.9 | 0.00 | 0.00 | 0.00 | 99 | 1013.0 |
| 20260510093639 | 69 | 0 | 0.0 | 0.0 | 0.00 | 0.00 | 0.00 | 99 | 1013.0 |
| 20260510093140 | 69 | 357 | 0.0 | 0.0 | 0.00 | 0.00 | 0.00 | 99 | 1013.0 |
| 20260510092639 | 69 | 357 | 1.7 | 1.7 | 0.00 | 0.00 | 0.00 | 99 | 1013.0 |
| 20260510092139 | 69 | 354 | 0.9 | 1.7 | 0.00 | 0.00 | 0.00 | 99 | 1013.0 |
| 20260510091640 | 69 | 7 | 2.6 | 3.5 | 0.00 | 0.00 | 0.00 | 99 | 1013.0 |
| 20260510091141 | 69 | 38 | 1.7 | 1.7 | 0.00 | 0.00 | 0.00 | 99 | 1013.0 |
| 20260510090639 | 69 | 24 | 1.7 | 2.6 | 0.00 | 0.00 | 0.00 | 99 | 1013.0 |
| 20260510090139 | 69 | 5 | 2.6 | 3.5 | 0.00 | 0.00 | 0.00 | 99 | 1013.0 |
| 20260510085640 | 69 | 343 | 1.7 | 2.6 | 0.00 | 0.00 | 0.00 | 99 | 1013.0 |
| 20260510085139 | 69 | 28 | 3.5 | 4.3 | 0.00 | 0.00 | 0.00 | 99 | 1013.0 |
| 20260510084639 | 69 | 20 | 2.6 | 4.3 | 0.00 | 0.00 | 0.00 | 99 | 1013.0 |
| 20260510084139 | 69 | 14 | 1.7 | 2.6 | 0.00 | 0.00 | 0.00 | 99 | 1013.0 |
| 20260510083640 | 69 | 15 | 1.7 | 2.6 | 0.00 | 0.00 | 0.00 | 99 | 1013.0 |
| 20260510083139 | 69 | 44 | 0.9 | 1.7 | 0.00 | 0.00 | 0.00 | 99 | 1013.0 |
| 20260510082639 | 69 | 10 | 0.9 | 1.7 | 0.00 | 0.00 | 0.00 | 99 | 1013.0 |
| 20260510082141 | 70 | 16 | 1.7 | 1.7 | 0.00 | 0.00 | 0.00 | 99 | 1013.0 |
| 20260510081640 | 70 | 27 | 2.6 | 2.6 | 0.00 | 0.00 | 0.00 | 98 | 1013.0 |
| 20260510081139 | 70 | 28 | 1.7 | 3.5 | 0.00 | 0.00 | 0.00 | 98 | 1013.0 |
| 20260510080639 | 70 | 3 | 1.7 | 1.7 | 0.00 | 0.00 | 0.00 | 98 | 1013.0 |
| 20260510080139 | 70 | 11 | 2.6 | 2.6 | 0.00 | 0.00 | 0.00 | 98 | 1013.0 |
| 20260510075640 | 69 | 18 | 0.9 | 0.9 | 0.00 | 0.00 | 0.00 | 98 | 1013.0 |
| 20260510075139 | 69 | 68 | 1.7 | 2.6 | 0.00 | 0.00 | 0.00 | 98 | 1013.0 |
| 20260510074640 | 69 | 12 | 1.7 | 1.7 | 0.00 | 0.00 | 0.00 | 98 | 1013.0 |
| 20260510074139 | 69 | 352 | 2.6 | 3.5 | 0.00 | 0.00 | 0.00 | 99 | 1013.0 |
| 20260510073640 | 69 | 19 | 1.7 | 3.5 | 0.00 | 0.00 | 0.00 | 99 | 1013.0 |
| 20260510073139 | 69 | 4 | 0.9 | 1.7 | 0.00 | 0.00 | 0.00 | 99 | 1013.0 |
| 20260510072639 | 69 | 17 | 0.9 | 1.7 | 0.00 | 0.00 | 0.00 | 99 | 1013.0 |
| 20260510072139 | 69 | 51 | 1.7 | 2.6 | 0.00 | 0.00 | 0.00 | 99 | 1012.0 |
| 20260510071639 | 69 | 15 | 0.9 | 0.9 | 0.00 | 0.00 | 0.00 | 100 | 1012.0 |
| 20260510071140 | 69 | 17 | 0.9 | 0.9 | 0.00 | 0.00 | 0.00 | 100 | 1012.0 |
| 20260510070639 | 69 | 11 | 0.0 | 0.9 | 0.00 | 0.00 | 0.00 | 100 | 1012.0 |
| 20260510070139 | 69 | 19 | 0.9 | 1.7 | 0.00 | 0.00 | 0.00 | 100 | 1013.0 |
| 20260510065641 | 69 | 352 | 0.0 | 1.7 | 0.00 | 0.00 | 0.00 | 100 | 1013.0 |
| 20260510065139 | 68 | 6 | 0.9 | 1.7 | 0.00 | 0.00 | 0.00 | 100 | 1013.0 |
| 20260510064639 | 68 | 33 | 0.9 | 1.7 | 0.00 | 0.00 | 0.00 | 100 | 1013.0 |
| 20260510064140 | 68 | 136 | 0.0 | 0.0 | 0.00 | 0.00 | 0.00 | 100 | 1013.0 |
| 20260510063640 | 68 | 30 | 1.7 | 1.7 | 0.00 | 0.00 | 0.00 | 99 | 1013.0 |
| 20260510063139 | 68 | 5 | 0.9 | 0.9 | 0.00 | 0.00 | 0.00 | 100 | 1013.0 |
| 20260510062639 | 68 | 3 | 0.0 | 0.9 | 0.00 | 0.00 | 0.00 | 100 | 1013.0 |
| 20260510062139 | 68 | 0 | 0.0 | 0.0 | 0.00 | 0.00 | 0.00 | 100 | 1013.0 |
| 20260510061639 | 68 | 0 | 0.0 | 0.0 | 0.00 | 0.00 | 0.00 | 100 | 1013.0 |
| 20260510061139 | 68 | 0 | 0.0 | 0.0 | 0.00 | 0.00 | 0.00 | 100 | 1013.0 |
| 20260510060639 | 68 | 10 | 1.7 | 1.7 | 0.00 | 0.00 | 0.00 | 100 | 1013.0 |
| 20260510060139 | 68 | 5 | 0.0 | 0.9 | 0.00 | 0.00 | 0.00 | 100 | 1013.0 |
| 20260510055639 | 68 | 23 | 1.7 | 2.6 | 0.00 | 0.00 | 0.00 | 100 | 1013.0 |
| 20260510055139 | 68 | 25 | 1.7 | 2.6 | 0.00 | 0.00 | 0.00 | 100 | 1013.0 |
| 20260510054639 | 68 | 25 | 0.9 | 0.9 | 0.00 | 0.00 | 0.00 | 100 | 1013.0 |
| 20260510054139 | 68 | 0 | 0.0 | 0.0 | 0.00 | 0.00 | 0.00 | 100 | 1013.0 |
| 20260510053642 | 68 | 345 | 0.0 | 0.9 | 0.00 | 0.00 | 0.00 | 100 | 1013.0 |
| 20260510053139 | 68 | 356 | 0.0 | 0.9 | 0.00 | 0.00 | 0.00 | 100 | 1013.0 |
| 20260510052639 | 68 | 0 | 0.0 | 0.0 | 0.00 | 0.00 | 0.00 | 100 | 1012.0 |
| 20260510052139 | 68 | 0 | 0.0 | 0.0 | 0.00 | 0.00 | 0.00 | 100 | 1013.0 |
| 20260510051639 | 68 | 0 | 0.0 | 0.0 | 0.00 | 0.00 | 0.00 | 100 | 1013.0 |
| 20260510051139 | 68 | 341 | 0.9 | 0.9 | 0.00 | 0.00 | 0.00 | 100 | 1013.0 |
| 20260510050639 | 69 | 274 | 0.0 | 0.9 | 0.00 | 0.00 | 0.00 | 100 | 1013.0 |
| 20260510050139 | 69 | 0 | 0.0 | 0.0 | 0.00 | 0.00 | 0.00 | 100 | 1013.0 |
| 20260510045640 | 69 | 0 | 0.0 | 0.0 | 0.00 | 0.00 | 1.61 | 100 | 1013.0 |
| 20260510045139 | 69 | 315 | 0.9 | 0.9 | 0.00 | 0.00 | 1.61 | 100 | 1013.0 |
| 20260510044639 | 69 | 0 | 0.0 | 0.0 | 0.00 | 0.00 | 1.61 | 100 | 1013.0 |
| 20260510044139 | 69 | 0 | 0.0 | 0.0 | 0.00 | 0.00 | 1.61 | 100 | 1013.0 |
| 20260510043639 | 69 | 0 | 0.0 | 0.0 | 0.00 | 0.00 | 1.61 | 99 | 1013.0 |
| 20260510043139 | 69 | 0 | 0.0 | 0.0 | 0.00 | 0.00 | 1.61 | 99 | 1013.0 |
| 20260510042639 | 69 | 312 | 0.9 | 0.9 | 0.00 | 0.00 | 1.61 | 99 | 1013.0 |
| 20260510042140 | 69 | 289 | 0.0 | 0.9 | 0.00 | 0.00 | 1.61 | 100 | 1013.0 |
| 20260510041641 | 69 | 307 | 0.9 | 0.9 | 0.00 | 0.00 | 1.61 | 100 | 1013.0 |
| 20260510041139 | 69 | 340 | 0.0 | 0.9 | 0.00 | 0.00 | 1.61 | 100 | 1013.0 |
| 20260510040639 | 69 | 3 | 0.0 | 0.9 | 0.00 | 0.00 | 1.61 | 100 | 1013.0 |
| 20260510040140 | 69 | 234 | 0.9 | 1.7 | 0.00 | 0.00 | 1.61 | 100 | 1013.0 |
| 20260510035640 | 68 | 332 | 0.9 | 1.7 | 0.00 | 0.00 | 1.61 | 99 | 1013.0 |
| 20260510035139 | 68 | 304 | 0.9 | 1.7 | 0.00 | 0.00 | 1.61 | 99 | 1013.0 |
| 20260510034640 | 68 | 304 | 0.9 | 1.7 | 0.00 | 0.00 | 1.61 | 99 | 1013.0 |
| 20260510034139 | 68 | 289 | 0.9 | 0.9 | 0.00 | 0.00 | 1.61 | 99 | 1013.0 |
| 20260510033639 | 68 | 11 | 0.0 | 0.0 | 0.00 | 0.00 | 1.61 | 99 | 1013.0 |
| 20260510033139 | 68 | 141 | 0.0 | 0.9 | 0.00 | 0.00 | 1.61 | 99 | 1013.0 |
| 20260510032640 | 68 | 263 | 0.9 | 0.9 | 0.00 | 0.00 | 1.61 | 99 | 1013.0 |
| 20260510031650 | 68 | 343 | 0.0 | 0.0 | 0.00 | 0.00 | 1.61 | 99 | 1014.0 |
| 20260510031139 | 68 | 225 | 0.0 | 1.7 | 0.00 | 0.00 | 1.61 | 99 | 1013.0 |
| 20260510030639 | 68 | 0 | 0.0 | 0.0 | 0.00 | 0.00 | 1.61 | 99 | 1014.0 |
| 20260510030142 | 68 | 0 | 0.0 | 0.0 | 0.00 | 0.00 | 1.61 | 99 | 1014.0 |
| 20260510025640 | 68 | 0 | 0.0 | 0.0 | 0.00 | 0.00 | 1.61 | 99 | 1014.0 |
| 20260510025139 | 68 | 0 | 0.0 | 0.0 | 0.00 | 0.00 | 1.61 | 99 | 1014.0 |
| 20260510024639 | 68 | 339 | 0.0 | 0.9 | 0.00 | 0.00 | 1.61 | 99 | 1014.0 |
| 20260510024139 | 68 | 0 | 0.0 | 0.0 | 0.00 | 0.00 | 1.61 | 99 | 1014.0 |
| 20260510023639 | 68 | 279 | 0.0 | 0.0 | 0.00 | 0.00 | 1.61 | 99 | 1013.0 |
| 20260510023139 | 68 | 256 | 0.0 | 0.0 | 0.00 | 0.00 | 1.61 | 99 | 1013.0 |
| 20260510022639 | 69 | 257 | 0.0 | 0.0 | 0.00 | 0.00 | 1.61 | 99 | 1013.0 |
| 20260510022139 | 69 | 282 | 0.0 | 0.9 | 0.00 | 0.00 | 1.61 | 99 | 1013.0 |
| 20260510021639 | 69 | 270 | 0.9 | 0.9 | 0.00 | 0.00 | 1.61 | 99 | 1013.0 |
| 20260510021139 | 69 | 240 | 1.7 | 1.7 | 0.00 | 0.00 | 1.61 | 99 | 1013.0 |
| 20260510020639 | 69 | 254 | 0.0 | 0.9 | 0.00 | 0.00 | 1.61 | 99 | 1013.0 |
| 20260510020140 | 69 | 233 | 0.0 | 0.9 | 0.00 | 0.00 | 1.61 | 99 | 1013.0 |
| 20260510015639 | 69 | 246 | 0.0 | 0.0 | 0.00 | 0.00 | 1.61 | 99 | 1013.0 |
| 20260510015139 | 69 | 281 | 0.0 | 1.7 | 0.00 | 0.00 | 1.61 | 99 | 1013.0 |
| 20260510014639 | 69 | 271 | 0.9 | 0.9 | 0.00 | 0.00 | 1.61 | 99 | 1013.0 |
| 20260510014139 | 69 | 318 | 0.9 | 1.7 | 0.00 | 0.00 | 1.61 | 99 | 1013.0 |
| 20260510013639 | 69 | 241 | 0.9 | 1.7 | 0.00 | 0.00 | 1.61 | 99 | 1013.0 |
| 20260510013139 | 69 | 314 | 0.0 | 0.0 | 0.00 | 0.00 | 1.61 | 99 | 1013.0 |
| 20260510012642 | 69 | 156 | 1.7 | 2.6 | 0.00 | 0.00 | 1.61 | 99 | 1012.0 |
| 20260510012139 | 69 | 1 | 0.9 | 1.7 | 0.00 | 0.00 | 1.61 | 99 | 1013.0 |
| 20260510011639 | 69 | 316 | 0.0 | 0.9 | 0.00 | 0.00 | 1.61 | 99 | 1012.0 |
| 20260510011139 | 69 | 271 | 0.9 | 1.7 | 0.00 | 0.00 | 1.61 | 99 | 1012.0 |
| 20260510010639 | 69 | 294 | 0.0 | 0.9 | 0.00 | 0.00 | 1.61 | 99 | 1012.0 |
| 20260510010139 | 69 | 255 | 1.7 | 2.6 | 0.00 | 0.00 | 1.61 | 99 | 1012.0 |
| 20260510005639 | 69 | 336 | 0.0 | 0.0 | 0.00 | 0.00 | 1.61 | 99 | 1012.0 |
| 20260510005139 | 69 | 255 | 0.9 | 1.7 | 0.00 | 0.00 | 1.61 | 99 | 1012.0 |
| 20260510004639 | 69 | 241 | 0.9 | 0.9 | 0.00 | 0.00 | 1.61 | 99 | 1012.0 |
| 20260510004142 | 69 | 315 | 0.0 | 0.9 | 0.00 | 0.00 | 1.61 | 99 | 1012.0 |
| 20260510003639 | 69 | 263 | 0.9 | 0.9 | 0.08 | 0.00 | 1.61 | 99 | 1012.0 |
| 20260510003139 | 69 | 312 | 0.9 | 0.9 | 0.00 | 0.00 | 1.61 | 99 | 1012.0 |
| 20260510002639 | 69 | 0 | 0.0 | 0.0 | 0.02 | 0.00 | 1.63 | 99 | 1012.0 |
| 20260510002139 | 69 | 307 | 0.0 | 0.9 | 0.00 | 0.00 | 1.62 | 99 | 1012.0 |
| 20260510001640 | 69 | 0 | 0.0 | 0.0 | 0.00 | 0.00 | 1.62 | 99 | 1012.0 |
| 20260510001140 | 69 | 0 | 0.0 | 0.0 | 0.00 | 0.00 | 1.62 | 99 | 1012.0 |
| 20260510000640 | 69 | 0 | 0.0 | 0.0 | 0.00 | 0.00 | 1.62 | 99 | 1012.0 |
| 20260510000140 | 69 | 228 | 0.0 | 0.9 | 0.00 | 0.00 | 1.62 | 99 | 1012.0 |
| 20260509235639 | 69 | 146 | 0.0 | 0.0 | 0.00 | 0.00 | 1.62 | 99 | 1012.0 |
| 20260509235140 | 69 | 243 | 0.0 | 1.7 | 0.00 | 0.00 | 1.62 | 99 | 1013.0 |
| 20260509234639 | 69 | 328 | 0.9 | 0.9 | 0.00 | 0.00 | 1.62 | 99 | 1012.0 |
| 20260509234139 | 69 | 70 | 0.0 | 0.9 | 0.00 | 0.00 | 1.62 | 99 | 1012.0 |
| 20260509233639 | 70 | 298 | 0.0 | 0.0 | 0.00 | 0.00 | 1.61 | 99 | 1013.0 |
| 20260509233139 | 70 | 245 | 0.0 | 0.0 | 0.00 | 0.00 | 1.61 | 99 | 1012.0 |
| 20260509232639 | 70 | 93 | 0.0 | 0.0 | 0.03 | 0.00 | 1.60 | 99 | 1012.0 |
| 20260509232139 | 70 | 339 | 0.0 | 0.9 | 0.13 | 0.00 | 1.59 | 99 | 1013.0 |
| 20260509231639 | 70 | 265 | 1.7 | 2.6 | 0.01 | 0.00 | 1.58 | 98 | 1013.0 |
| 20260509231139 | 70 | 279 | 0.0 | 0.9 | 0.03 | 0.00 | 1.58 | 99 | 1013.0 |
| 20260509230639 | 70 | 216 | 0.9 | 1.7 | 0.03 | 0.00 | 1.57 | 98 | 1013.0 |
| 20260509230139 | 70 | 0 | 0.0 | 0.0 | 0.04 | 0.00 | 1.57 | 98 | 1013.0 |
| 20260509225640 | 70 | 191 | 0.9 | 1.7 | 0.00 | 0.00 | 1.56 | 98 | 1013.0 |
| 20260509225139 | 70 | 254 | 0.0 | 0.0 | 0.00 | 0.00 | 1.56 | 98 | 1013.0 |
| 20260509224640 | 70 | 195 | 0.9 | 1.7 | 0.00 | 0.00 | 1.56 | 98 | 1012.0 |
| 20260509224139 | 70 | 0 | 0.0 | 0.0 | 0.00 | 0.00 | 1.56 | 98 | 1012.0 |
| 20260509223640 | 70 | 0 | 0.0 | 0.0 | 0.00 | 0.00 | 1.56 | 98 | 1012.0 |
| 20260509223140 | 70 | 257 | 0.0 | 0.9 | 0.00 | 0.00 | 1.56 | 98 | 1012.0 |
| 20260509222639 | 70 | 208 | 0.0 | 0.0 | 0.00 | 0.00 | 1.56 | 98 | 1012.0 |
| 20260509222140 | 70 | 292 | 0.9 | 0.9 | 0.00 | 0.00 | 1.56 | 98 | 1012.0 |
| 20260509221640 | 70 | 0 | 0.0 | 0.0 | 0.00 | 0.00 | 1.56 | 98 | 1011.0 |
| 20260509221139 | 70 | 51 | 0.0 | 0.0 | 0.00 | 0.00 | 1.56 | 98 | 1011.0 |
| 20260509220641 | 70 | 0 | 0.0 | 0.0 | 0.00 | 0.00 | 1.56 | 98 | 1012.0 |
| 20260509220140 | 70 | 335 | 0.0 | 0.0 | 0.00 | 0.00 | 1.56 | 98 | 1012.0 |
| 20260509215639 | 70 | 239 | 0.9 | 1.7 | 0.00 | 0.00 | 1.56 | 97 | 1012.0 |
| 20260509215139 | 70 | 325 | 0.0 | 0.0 | 0.02 | 0.00 | 1.56 | 97 | 1012.0 |
| 20260509214641 | 70 | 325 | 0.0 | 0.0 | 0.05 | 0.00 | 1.56 | 97 | 1012.0 |
| 20260509214139 | 69 | 357 | 0.9 | 1.7 | 0.03 | 0.00 | 1.56 | 97 | 1012.0 |
| 20260509213639 | 70 | 221 | 1.7 | 2.6 | 0.02 | 0.00 | 1.55 | 97 | 1012.0 |
| 20260509213139 | 70 | 280 | 0.9 | 1.7 | 0.00 | 0.00 | 1.55 | 97 | 1012.0 |
| 20260509212639 | 70 | 250 | 0.9 | 1.7 | 0.00 | 0.00 | 1.54 | 96 | 1012.0 |
| 20260509212139 | 70 | 292 | 0.9 | 0.9 | 0.00 | 0.00 | 1.54 | 96 | 1012.0 |
| 20260509211639 | 70 | 289 | 0.0 | 0.0 | 0.00 | 0.00 | 1.54 | 96 | 1011.0 |
| 20260509211139 | 70 | 297 | 0.9 | 0.9 | 0.00 | 0.00 | 1.54 | 96 | 1011.0 |
| 20260509210639 | 70 | 276 | 0.9 | 0.9 | 0.00 | 0.00 | 1.54 | 96 | 1011.0 |
| 20260509210141 | 71 | 267 | 0.9 | 2.6 | 0.00 | 0.00 | 1.55 | 96 | 1011.0 |
| 20260509205639 | 71 | 22 | 0.0 | 0.9 | 0.00 | 0.00 | 1.55 | 96 | 1011.0 |
| 20260509205139 | 71 | 271 | 0.9 | 1.7 | 0.00 | 0.00 | 1.55 | 96 | 1011.0 |
| 20260509204640 | 71 | 232 | 1.7 | 1.7 | 0.00 | 0.00 | 1.55 | 97 | 1011.0 |
| 20260509204140 | 71 | 232 | 0.9 | 1.7 | 0.00 | 0.00 | 1.55 | 98 | 1011.0 |
| 20260509203639 | 71 | 232 | 1.7 | 1.7 | 0.00 | 0.00 | 1.55 | 98 | 1011.0 |
| 20260509203139 | 70 | 232 | 0.9 | 1.7 | 0.00 | 0.00 | 1.55 | 99 | 1012.0 |
| 20260509202639 | 70 | 232 | 2.6 | 2.6 | 0.00 | 0.00 | 1.55 | 99 | 1012.0 |
| 20260509202140 | 69 | 231 | 3.5 | 3.5 | 0.00 | 0.00 | 1.55 | 99 | 1012.0 |
| 20260509201639 | 69 | 232 | 3.5 | 3.5 | 0.00 | 0.00 | 1.55 | 99 | 1012.0 |
| 20260509201140 | 69 | 231 | 2.6 | 3.5 | 0.02 | 0.00 | 1.55 | 99 | 1012.0 |
| 20260509200642 | 69 | 232 | 2.6 | 2.6 | 0.05 | 0.00 | 1.54 | 99 | 1013.0 |
| 20260509200139 | 69 | 232 | 2.6 | 3.5 | 0.06 | 0.00 | 1.55 | 99 | 1013.0 |
| 20260509195639 | 68 | 232 | 2.6 | 2.6 | 0.13 | 0.00 | 1.54 | 99 | 1013.0 |
| 20260509195142 | 68 | 232 | 2.6 | 2.6 | 0.16 | 0.00 | 1.52 | 99 | 1013.0 |
| 20260509194639 | 68 | 232 | 2.6 | 2.6 | 0.09 | 0.00 | 1.51 | 99 | 1013.0 |
| 20260509194139 | 68 | 232 | 1.7 | 1.7 | 0.14 | 0.00 | 1.50 | 99 | 1013.0 |
| 20260509193639 | 68 | 232 | 2.6 | 2.6 | 0.04 | 0.00 | 1.50 | 99 | 1013.0 |
| 20260509193139 | 68 | 232 | 2.6 | 3.5 | 0.08 | 0.00 | 1.49 | 99 | 1013.0 |
| 20260509192640 | 68 | 232 | 2.6 | 2.6 | 0.11 | 0.00 | 1.48 | 99 | 1013.0 |
| 20260509192141 | 68 | 232 | 3.5 | 3.5 | 0.16 | 0.00 | 1.48 | 99 | 1013.0 |
| 20260509191639 | 68 | 231 | 2.6 | 5.2 | 0.10 | 0.00 | 1.47 | 99 | 1013.0 |
| 20260509191141 | 68 | 232 | 3.5 | 5.2 | 0.26 | 0.00 | 1.45 | 99 | 1013.0 |
| 20260509190641 | 67 | 231 | 3.5 | 7.0 | 0.12 | 0.00 | 1.44 | 99 | 1013.0 |
| 20260509190141 | 67 | 232 | 5.2 | 11.3 | 0.09 | 0.00 | 1.45 | 99 | 1013.0 |
| 20260509185639 | 67 | 232 | 7.8 | 20.9 | 0.13 | 0.00 | 1.44 | 99 | 1013.0 |
| 20260509183139 | 67 | 231 | 3.5 | 4.3 | 0.02 | 0.00 | 1.40 | 99 | 1013.0 |
| 20260509181641 | 67 | 231 | 3.5 | 4.3 | 0.07 | 0.00 | 1.40 | 99 | 1013.0 |
| 20260509181141 | 67 | 232 | 3.5 | 3.5 | 0.09 | 0.00 | 1.39 | 99 | 1013.0 |
| 20260509180640 | 67 | 232 | 3.5 | 4.3 | 0.10 | 0.00 | 1.38 | 99 | 1013.0 |
| 20260509180141 | 67 | 232 | 4.3 | 4.3 | 0.04 | 0.00 | 1.41 | 99 | 1013.0 |
| 20260509175640 | 67 | 232 | 3.5 | 4.3 | 0.12 | 0.00 | 1.40 | 99 | 1013.0 |
| 20260509175141 | 67 | 232 | 3.5 | 3.5 | 0.04 | 0.00 | 1.39 | 99 | 1013.0 |
| 20260509174639 | 67 | 231 | 3.5 | 4.3 | 0.04 | 0.00 | 1.39 | 99 | 1013.0 |
| 20260509174139 | 67 | 231 | 4.3 | 5.2 | 0.01 | 0.00 | 1.39 | 99 | 1013.0 |
| 20260509173639 | 67 | 232 | 4.3 | 8.7 | 0.00 | 0.00 | 1.38 | 99 | 1013.0 |
| 20260509173139 | 67 | 231 | 7.0 | 14.8 | 0.04 | 0.00 | 1.38 | 99 | 1013.0 |
| 20260509171139 | 66 | 232 | 3.5 | 4.3 | 0.22 | 0.00 | 1.28 | 99 | 1013.0 |
| 20260509170641 | 66 | 231 | 3.5 | 3.5 | 0.03 | 0.00 | 1.27 | 99 | 1014.0 |
| 20260509170139 | 66 | 76 | 3.5 | 7.8 | 0.14 | 0.00 | 1.30 | 99 | 1014.0 |
| 20260509165641 | 66 | 67 | 2.6 | 4.3 | 0.21 | 0.00 | 1.29 | 99 | 1014.0 |
| 20260509164639 | 66 | 65 | 3.5 | 4.3 | 0.29 | 0.00 | 1.25 | 99 | 1014.0 |